createdAt,value
2023-04-28T00:00:37.045Z,12.87
2023-04-28T00:01:37.093Z,12.89
2023-04-28T00:02:37.072Z,12.90
2023-04-28T00:03:37.175Z,12.90
2023-04-28T00:04:37.213Z,12.92
2023-04-28T00:05:37.066Z,12.90
2023-04-28T00:06:37.068Z,12.90
2023-04-28T00:07:37.146Z,12.95
2023-04-28T00:08:36.946Z,12.95
2023-04-28T00:09:36.951Z,12.95
2023-04-28T00:10:36.912Z,12.96
2023-04-28T00:11:36.951Z,12.96
2023-04-28T00:12:36.918Z,12.97
2023-04-28T00:13:36.902Z,12.97
2023-04-28T00:14:36.866Z,13.00
2023-04-28T00:15:36.908Z,13.03
2023-04-28T00:16:36.876Z,13.01
2023-04-28T00:17:36.906Z,13.03
2023-04-28T00:18:36.831Z,13.05
2023-04-28T00:19:36.818Z,13.05
2023-04-28T00:20:36.780Z,13.08
2023-04-28T00:21:36.804Z,13.11
2023-04-28T00:22:36.753Z,13.12
2023-04-28T00:23:36.805Z,13.14
2023-04-28T00:24:36.755Z,13.15
2023-04-28T00:25:36.746Z,13.17
2023-04-28T00:26:36.700Z,13.22
2023-04-28T00:27:36.744Z,13.25
2023-04-28T00:28:36.684Z,13.25
2023-04-28T00:29:36.694Z,13.25
2023-04-28T00:30:36.673Z,13.25
2023-04-28T00:31:36.699Z,13.26
2023-04-28T00:32:36.625Z,13.28
2023-04-28T00:33:36.627Z,13.26
2023-04-28T00:34:36.631Z,13.25
2023-04-28T00:35:36.605Z,13.25
2023-04-28T00:36:36.574Z,13.22
2023-04-28T00:37:36.601Z,13.23
2023-04-28T00:38:36.575Z,13.23
2023-04-28T00:39:36.589Z,13.25
2023-04-28T00:40:36.519Z,13.22
2023-04-28T00:41:36.524Z,13.20
2023-04-28T00:42:36.479Z,13.20
2023-04-28T00:43:36.522Z,13.22
2023-04-28T00:44:36.492Z,13.23
2023-04-28T00:45:36.524Z,13.25
2023-04-28T00:46:36.438Z,13.25
2023-04-28T00:47:36.493Z,13.23
2023-04-28T00:48:36.410Z,13.25
2023-04-28T00:49:36.447Z,13.25
2023-04-28T00:50:36.384Z,13.25
2023-04-28T00:51:36.407Z,13.23
2023-04-28T00:52:36.386Z,13.23
2023-04-28T00:53:36.371Z,13.23
2023-04-28T00:54:36.342Z,13.19
2023-04-28T00:55:36.353Z,13.15
2023-04-28T00:56:36.329Z,13.15
2023-04-28T00:57:36.325Z,13.15
2023-04-28T00:58:36.273Z,13.15
2023-04-28T00:59:36.295Z,13.14
2023-04-28T01:00:36.277Z,13.12
2023-04-28T01:01:36.329Z,13.10
2023-04-28T01:02:36.490Z,13.08
2023-04-28T01:03:36.344Z,13.05
2023-04-28T01:04:36.268Z,13.04
2023-04-28T01:05:36.222Z,13.01
2023-04-28T01:06:36.184Z,13.01
2023-04-28T01:07:36.225Z,12.97
2023-04-28T01:08:36.175Z,12.97
2023-04-28T01:09:36.204Z,13.01
2023-04-28T01:10:36.122Z,13.00
2023-04-28T01:11:36.129Z,13.00
2023-04-28T01:12:36.113Z,13.00
2023-04-28T01:13:36.098Z,13.00
2023-04-28T01:14:36.060Z,13.01
2023-04-28T01:15:36.080Z,13.01
2023-04-28T01:16:36.117Z,13.01
2023-04-28T01:17:36.115Z,13.00
2023-04-28T01:18:36.022Z,13.00
2023-04-28T01:19:36.045Z,12.97
2023-04-28T01:20:35.981Z,12.96
2023-04-28T01:21:35.998Z,12.96
2023-04-28T01:22:35.992Z,12.95
2023-04-28T01:23:35.974Z,12.95
2023-04-28T01:24:35.936Z,12.95
2023-04-28T01:25:35.961Z,12.93
2023-04-28T01:26:35.901Z,12.93
2023-04-28T01:27:35.924Z,12.95
2023-04-28T01:28:35.893Z,12.96
2023-04-28T01:29:35.927Z,13.00
2023-04-28T01:30:35.865Z,13.03
2023-04-28T01:31:35.913Z,13.04
2023-04-28T01:32:35.899Z,13.07
2023-04-28T01:33:35.865Z,13.05
2023-04-28T01:34:35.800Z,13.05
2023-04-28T01:35:35.824Z,13.01
2023-04-28T01:36:37.527Z,13.00
2023-04-28T01:37:35.816Z,13.00
2023-04-28T01:38:35.752Z,13.01
2023-04-28T01:39:35.785Z,13.03
2023-04-28T01:40:35.742Z,13.04
2023-04-28T01:41:35.767Z,13.07
2023-04-28T01:42:38.451Z,13.10
2023-04-28T01:43:35.717Z,13.10
2023-04-28T01:44:35.673Z,13.07
2023-04-28T01:45:35.699Z,13.08
2023-04-28T01:46:35.733Z,13.10
2023-04-28T01:47:35.740Z,13.10
2023-04-28T01:48:35.619Z,13.11
2023-04-28T01:49:35.625Z,13.05
2023-04-28T01:50:35.645Z,13.00
2023-04-28T01:51:35.628Z,12.95
2023-04-28T01:52:35.565Z,12.93
2023-04-28T01:53:35.598Z,12.89
2023-04-28T01:54:35.606Z,12.83
2023-04-28T01:55:35.564Z,12.78
2023-04-28T01:56:35.543Z,12.77
2023-04-28T01:57:35.524Z,12.75
2023-04-28T01:58:35.527Z,12.75
2023-04-28T01:59:35.500Z,12.72
2023-04-28T02:00:35.455Z,12.72
2023-04-28T02:01:35.521Z,12.71
2023-04-28T02:02:35.492Z,12.71
2023-04-28T02:03:35.617Z,12.71
2023-04-28T02:04:35.499Z,12.74
2023-04-28T02:05:35.446Z,12.77
2023-04-28T02:06:35.395Z,12.79
2023-04-28T02:07:35.398Z,12.83
2023-04-28T02:08:35.372Z,12.87
2023-04-28T02:09:35.409Z,12.87
2023-04-28T02:10:35.337Z,12.87
2023-04-28T02:11:35.344Z,12.85
2023-04-28T02:12:35.302Z,12.77
2023-04-28T02:13:35.313Z,12.67
2023-04-28T02:14:35.275Z,12.59
2023-04-28T02:15:35.325Z,12.54
2023-04-28T02:16:35.279Z,12.54
2023-04-28T02:17:35.275Z,12.56
2023-04-28T02:18:35.236Z,12.62
2023-04-28T02:19:35.240Z,12.65
2023-04-28T02:20:35.182Z,12.71
2023-04-28T02:21:35.193Z,12.75
2023-04-28T02:22:35.189Z,12.77
2023-04-28T02:23:35.208Z,12.75
2023-04-28T02:24:35.153Z,12.75
2023-04-28T02:25:35.164Z,12.72
2023-04-28T02:26:35.141Z,12.71
2023-04-28T02:27:35.091Z,12.71
2023-04-28T02:28:35.122Z,12.71
2023-04-28T02:29:35.076Z,12.74
2023-04-28T02:30:35.086Z,12.75
2023-04-28T02:31:35.094Z,12.77
2023-04-28T02:32:35.099Z,12.77
2023-04-28T02:33:35.019Z,12.77
2023-04-28T02:34:35.032Z,12.75
2023-04-28T02:35:35.072Z,12.78
2023-04-28T02:36:34.998Z,12.79
2023-04-28T02:37:34.964Z,12.82
2023-04-28T02:38:35.014Z,12.79
2023-04-28T02:39:34.937Z,12.77
2023-04-28T02:40:34.951Z,12.75
2023-04-28T02:41:34.900Z,12.78
2023-04-28T02:42:34.949Z,12.78
2023-04-28T02:43:34.911Z,12.78
2023-04-28T02:44:34.926Z,12.82
2023-04-28T02:45:34.914Z,12.83
2023-04-28T02:46:34.936Z,12.83
2023-04-28T02:47:34.897Z,12.85
2023-04-28T02:48:34.871Z,12.86
2023-04-28T02:49:34.817Z,12.87
2023-04-28T02:50:34.804Z,12.89
2023-04-28T02:51:34.778Z,12.90
2023-04-28T02:52:34.885Z,12.93
2023-04-28T02:53:34.776Z,12.95
2023-04-28T02:54:34.825Z,12.95
2023-04-28T02:55:34.723Z,12.96
2023-04-28T02:56:34.739Z,12.97
2023-04-28T02:57:34.702Z,13.00
2023-04-28T02:58:34.697Z,13.00
2023-04-28T02:59:34.716Z,12.95
2023-04-28T03:00:34.680Z,12.92
2023-04-28T03:01:34.726Z,12.90
2023-04-28T03:02:34.719Z,12.89
2023-04-28T03:03:34.804Z,12.89
2023-04-28T03:04:34.733Z,12.90
2023-04-28T03:05:34.597Z,12.89
2023-04-28T03:06:34.624Z,12.85
2023-04-28T03:07:34.560Z,12.83
2023-04-28T03:08:34.596Z,12.79
2023-04-28T03:09:34.551Z,12.77
2023-04-28T03:10:34.557Z,12.75
2023-04-28T03:11:34.564Z,12.77
2023-04-28T03:12:34.528Z,12.75
2023-04-28T03:13:34.506Z,12.75
2023-04-28T03:14:34.508Z,12.77
2023-04-28T03:15:34.478Z,12.78
2023-04-28T03:16:34.564Z,12.78
2023-04-28T03:17:34.451Z,12.77
2023-04-28T03:18:34.443Z,12.74
2023-04-28T03:19:34.415Z,12.72
2023-04-28T03:20:34.430Z,12.71
2023-04-28T03:21:34.401Z,12.71
2023-04-28T03:22:34.419Z,12.71
2023-04-28T03:23:34.361Z,12.71
2023-04-28T03:24:34.350Z,12.71
2023-04-28T03:25:34.328Z,12.72
2023-04-28T03:26:34.394Z,12.72
2023-04-28T03:27:34.365Z,12.74
2023-04-28T03:28:34.336Z,12.74
2023-04-28T03:29:34.273Z,12.72
2023-04-28T03:30:34.283Z,12.71
2023-04-28T03:31:34.298Z,12.70
2023-04-28T03:32:34.528Z,12.71
2023-04-28T03:33:34.242Z,12.70
2023-04-28T03:34:34.232Z,12.68
2023-04-28T03:35:34.190Z,12.68
2023-04-28T03:36:34.211Z,12.68
2023-04-28T03:37:34.197Z,12.70
2023-04-28T03:38:34.192Z,12.71
2023-04-28T03:39:34.156Z,12.67
2023-04-28T03:40:34.178Z,12.60
2023-04-28T03:41:34.111Z,12.57
2023-04-28T03:42:34.124Z,12.53
2023-04-28T03:43:34.091Z,12.52
2023-04-28T03:44:34.104Z,12.47
2023-04-28T03:45:34.076Z,12.45
2023-04-28T03:46:34.090Z,12.41
2023-04-28T03:47:34.056Z,12.38
2023-04-28T03:48:34.037Z,12.38
2023-04-28T03:49:34.022Z,12.38
2023-04-28T03:50:34.016Z,12.38
2023-04-28T03:51:34.006Z,12.35
2023-04-28T03:52:34.006Z,12.35
2023-04-28T03:53:33.951Z,12.35
2023-04-28T03:54:34.008Z,12.37
2023-04-28T03:55:33.927Z,12.39
2023-04-28T03:56:33.947Z,12.39
2023-04-28T03:57:33.910Z,12.45
2023-04-28T03:58:33.913Z,12.46
2023-04-28T03:59:33.906Z,12.50
2023-04-28T04:00:33.914Z,12.50
2023-04-28T04:01:33.851Z,12.50
2023-04-28T04:02:34.082Z,12.50
2023-04-28T04:03:34.095Z,12.47
2023-04-28T04:04:34.018Z,12.45
2023-04-28T04:05:33.926Z,12.45
2023-04-28T04:06:33.822Z,12.41
2023-04-28T04:07:33.776Z,12.39
2023-04-28T04:08:33.790Z,12.41
2023-04-28T04:09:33.753Z,12.41
2023-04-28T04:10:33.794Z,12.45
2023-04-28T04:11:33.729Z,12.45
2023-04-28T04:12:33.725Z,12.45
2023-04-28T04:13:33.721Z,12.47
2023-04-28T04:14:33.716Z,12.47
2023-04-28T04:15:33.697Z,12.46
2023-04-28T04:16:33.673Z,12.49
2023-04-28T04:17:33.730Z,12.49
2023-04-28T04:18:33.665Z,12.52
2023-04-28T04:19:33.632Z,12.53
2023-04-28T04:20:33.672Z,12.56
2023-04-28T04:21:33.636Z,12.59
2023-04-28T04:22:33.625Z,12.60
2023-04-28T04:23:33.575Z,12.60
2023-04-28T04:24:33.575Z,12.62
2023-04-28T04:25:33.565Z,12.62
2023-04-28T04:26:33.542Z,12.64
2023-04-28T04:27:33.498Z,12.62
2023-04-28T04:28:33.542Z,12.60
2023-04-28T04:29:33.573Z,12.60
2023-04-28T04:30:33.519Z,12.60
2023-04-28T04:31:33.485Z,12.62
2023-04-28T04:32:33.534Z,12.64
2023-04-28T04:33:33.446Z,12.64
2023-04-28T04:34:33.450Z,12.65
2023-04-28T04:35:33.419Z,12.65
2023-04-28T04:36:33.427Z,12.67
2023-04-28T04:37:33.379Z,12.67
2023-04-28T04:38:33.468Z,12.67
2023-04-28T04:39:33.356Z,12.68
2023-04-28T04:40:33.359Z,12.68
2023-04-28T04:41:33.320Z,12.70
2023-04-28T04:42:33.340Z,12.71
2023-04-28T04:43:33.328Z,12.72
2023-04-28T04:44:33.308Z,12.74
2023-04-28T04:45:33.278Z,12.75
2023-04-28T04:46:33.324Z,12.77
2023-04-28T04:47:33.292Z,12.75
2023-04-28T04:48:33.276Z,12.77
2023-04-28T04:49:33.246Z,12.77
2023-04-28T04:50:33.224Z,12.77
2023-04-28T04:51:33.196Z,12.75
2023-04-28T04:52:33.230Z,12.75
2023-04-28T04:53:33.166Z,12.74
2023-04-28T04:54:33.186Z,12.74
2023-04-28T04:55:33.157Z,12.72
2023-04-28T04:56:33.160Z,12.72
2023-04-28T04:57:33.122Z,12.74
2023-04-28T04:58:33.440Z,12.72
2023-04-28T04:59:33.137Z,12.74
2023-04-28T05:00:33.132Z,12.74
2023-04-28T05:01:33.108Z,12.74
2023-04-28T05:02:33.211Z,12.74
2023-04-28T05:03:33.284Z,12.74
2023-04-28T05:04:33.076Z,12.72
2023-04-28T05:05:33.063Z,12.74
2023-04-28T05:06:33.035Z,12.75
2023-04-28T05:07:32.997Z,12.75
2023-04-28T05:08:33.041Z,12.77
2023-04-28T05:09:33.031Z,12.77
2023-04-28T05:10:32.986Z,12.77
2023-04-28T05:11:32.944Z,12.77
2023-04-28T05:12:32.932Z,12.77
2023-04-28T05:13:32.904Z,12.77
2023-04-28T05:14:32.925Z,12.78
2023-04-28T05:15:32.877Z,12.82
2023-04-28T05:16:32.974Z,12.83
2023-04-28T05:17:32.856Z,12.86
2023-04-28T05:18:32.890Z,12.89
2023-04-28T05:19:32.824Z,12.87
2023-04-28T05:20:32.857Z,12.87
2023-04-28T05:21:32.828Z,12.89
2023-04-28T05:22:32.814Z,12.90
2023-04-28T05:23:32.777Z,12.90
2023-04-28T05:24:32.801Z,12.92
2023-04-28T05:25:32.817Z,12.92
2023-04-28T05:26:32.757Z,12.93
2023-04-28T05:27:32.712Z,12.93
2023-04-28T05:28:32.719Z,12.95
2023-04-28T05:29:32.686Z,12.96
2023-04-28T05:30:32.732Z,12.97
2023-04-28T05:31:32.729Z,13.03
2023-04-28T05:32:32.722Z,13.03
2023-04-28T05:33:32.632Z,13.05
2023-04-28T05:34:32.643Z,13.08
2023-04-28T05:35:32.607Z,13.11
2023-04-28T05:36:32.632Z,13.11
2023-04-28T05:37:32.625Z,13.12
2023-04-28T05:38:32.588Z,13.15
2023-04-28T05:39:32.554Z,13.17
2023-04-28T05:40:32.633Z,13.20
2023-04-28T05:41:32.564Z,13.22
2023-04-28T05:42:32.569Z,13.23
2023-04-28T05:43:32.506Z,13.26
2023-04-28T05:44:32.505Z,13.28
2023-04-28T05:45:32.494Z,13.28
2023-04-28T05:46:32.532Z,13.29
2023-04-28T05:47:32.482Z,13.29
2023-04-28T05:48:32.467Z,13.29
2023-04-28T05:49:32.421Z,13.30
2023-04-28T05:50:32.445Z,13.32
2023-04-28T05:51:32.414Z,13.36
2023-04-28T05:52:32.420Z,13.33
2023-04-28T05:53:32.370Z,13.32
2023-04-28T05:54:32.362Z,13.36
2023-04-28T05:55:32.339Z,13.38
2023-04-28T05:56:32.382Z,13.36
2023-04-28T05:57:41.692Z,13.38
2023-04-28T05:58:32.349Z,13.38
2023-04-28T05:59:32.285Z,13.39
2023-04-28T06:00:32.296Z,13.39
2023-04-28T06:01:32.316Z,13.41
2023-04-28T06:02:32.343Z,13.41
2023-04-28T06:03:32.503Z,13.41
2023-04-28T06:04:32.622Z,13.42
2023-04-28T06:05:32.445Z,13.44
2023-04-28T06:10:16.236Z,13.46
2023-04-28T06:11:03.827Z,13.46
2023-04-28T06:12:03.817Z,13.46
2023-04-28T06:13:03.831Z,13.46
2023-04-28T06:14:03.773Z,13.46
2023-04-28T06:15:03.810Z,13.45
2023-04-28T06:16:03.891Z,13.45
2023-04-28T06:17:03.740Z,13.45
2023-04-28T06:18:03.755Z,13.45
2023-04-28T06:19:03.745Z,13.45
2023-04-28T06:20:03.709Z,13.44
2023-04-28T06:21:03.723Z,13.44
2023-04-28T06:22:03.675Z,13.44
2023-04-28T06:23:03.650Z,13.42
2023-04-28T06:24:03.640Z,13.44
2023-04-28T06:25:03.640Z,13.42
2023-04-28T06:26:03.645Z,13.41
2023-04-28T06:27:03.624Z,13.42
2023-04-28T06:28:03.589Z,13.45
2023-04-28T06:29:03.587Z,13.44
2023-04-28T06:30:03.587Z,13.45
2023-04-28T06:31:03.614Z,13.44
2023-04-28T06:32:03.550Z,13.44
2023-04-28T06:33:03.582Z,13.42
2023-04-28T06:34:03.507Z,13.42
2023-04-28T06:35:03.542Z,13.42
2023-04-28T06:36:03.470Z,13.44
2023-04-28T06:37:03.488Z,13.45
2023-04-28T06:38:03.472Z,13.45
2023-04-28T06:39:03.470Z,13.46
2023-04-28T06:40:03.471Z,13.49
2023-04-28T06:41:03.450Z,13.51
2023-04-28T06:42:03.391Z,13.49
2023-04-28T06:43:03.412Z,13.51
2023-04-28T06:44:03.373Z,13.55
2023-04-28T06:45:03.409Z,13.54
2023-04-28T06:46:03.356Z,13.52
2023-04-28T06:47:03.435Z,13.54
2023-04-28T06:48:03.388Z,13.55
2023-04-28T06:49:03.321Z,13.55
2023-04-28T06:50:03.314Z,13.57
2023-04-28T06:51:03.287Z,13.59
2023-04-28T06:52:03.293Z,13.60
2023-04-28T06:53:03.286Z,13.62
2023-04-28T06:54:03.284Z,13.63
2023-04-28T06:55:03.248Z,13.63
2023-04-28T06:56:03.218Z,13.63
2023-04-28T06:57:03.257Z,13.66
2023-04-28T06:58:03.186Z,13.66
2023-04-28T06:59:03.202Z,13.66
2023-04-28T07:00:03.168Z,13.67
2023-04-28T07:01:03.193Z,13.66
2023-04-28T07:02:03.214Z,13.66
2023-04-28T07:03:03.352Z,13.66
2023-04-28T07:04:03.253Z,13.66
2023-04-28T07:05:03.131Z,13.67
2023-04-28T07:06:03.096Z,13.67
2023-04-28T07:07:03.070Z,13.69
2023-04-28T07:08:03.076Z,13.67
2023-04-28T07:09:03.062Z,13.69
2023-04-28T07:10:03.043Z,13.69
2023-04-28T07:11:03.045Z,13.70
2023-04-28T07:12:03.025Z,13.71
2023-04-28T07:13:03.013Z,13.73
2023-04-28T07:14:03.020Z,13.73
2023-04-28T07:15:02.985Z,13.77
2023-04-28T07:16:03.018Z,13.75
2023-04-28T07:17:02.948Z,13.75
2023-04-28T07:18:02.986Z,13.75
2023-04-28T07:19:02.956Z,13.75
2023-04-28T07:20:02.900Z,13.75
2023-04-28T07:21:05.249Z,13.75
2023-04-28T07:22:02.881Z,13.77
2023-04-28T07:23:02.891Z,13.77
2023-04-28T07:24:02.863Z,13.78
2023-04-28T07:25:02.851Z,13.75
2023-04-28T07:26:02.826Z,13.75
2023-04-28T07:27:02.819Z,13.77
2023-04-28T07:28:02.813Z,13.77
2023-04-28T07:29:02.812Z,13.77
2023-04-28T07:30:11.583Z,13.79
2023-04-28T07:31:02.764Z,13.77
2023-04-28T07:32:03.750Z,13.78
2023-04-28T07:33:02.811Z,13.78
2023-04-28T07:34:02.696Z,13.78
2023-04-28T07:35:02.730Z,13.78
2023-04-28T07:36:02.719Z,13.75
2023-04-28T07:37:02.733Z,13.78
2023-04-28T07:38:02.673Z,13.79
2023-04-28T07:39:02.670Z,13.79
2023-04-28T07:40:02.637Z,13.79
2023-04-28T07:41:02.670Z,13.81
2023-04-28T07:42:02.618Z,13.82
2023-04-28T07:43:02.604Z,13.82
2023-04-28T07:44:02.564Z,13.82
2023-04-28T07:45:02.616Z,13.82
2023-04-28T07:46:02.636Z,13.82
2023-04-28T07:47:02.572Z,13.82
2023-04-28T07:48:02.601Z,13.84
2023-04-28T07:49:02.568Z,13.85
2023-04-28T07:50:02.512Z,13.85
2023-04-28T07:51:02.515Z,13.85
2023-04-28T07:52:02.456Z,13.85
2023-04-28T07:53:02.536Z,13.87
2023-04-28T07:54:02.436Z,13.88
2023-04-28T07:55:02.500Z,13.89
2023-04-28T07:56:02.413Z,13.91
2023-04-28T07:57:02.475Z,13.92
2023-04-28T07:58:02.390Z,13.92
2023-04-28T07:59:02.431Z,13.95
2023-04-28T08:00:02.401Z,13.96
2023-04-28T08:01:02.377Z,13.97
2023-04-28T08:02:02.389Z,13.99
2023-04-28T08:03:02.560Z,14.00
2023-04-28T08:04:02.511Z,14.02
2023-04-28T08:05:02.583Z,14.03
2023-04-28T08:06:02.380Z,14.06
2023-04-28T08:07:02.282Z,14.06
2023-04-28T08:08:02.255Z,14.06
2023-04-28T08:09:02.254Z,14.06
2023-04-28T08:10:02.219Z,14.07
2023-04-28T08:11:02.257Z,14.09
2023-04-28T08:12:02.217Z,14.10
2023-04-28T08:13:02.243Z,14.09
2023-04-28T08:14:02.182Z,14.09
2023-04-28T08:15:02.226Z,14.10
2023-04-28T08:16:02.211Z,14.09
2023-04-28T08:17:02.183Z,14.10
2023-04-28T08:18:02.151Z,14.12
2023-04-28T08:19:02.189Z,14.10
2023-04-28T08:20:02.092Z,14.10
2023-04-28T08:21:02.102Z,14.10
2023-04-28T08:22:02.074Z,14.10
2023-04-28T08:23:02.091Z,14.10
2023-04-28T08:24:02.048Z,14.10
2023-04-28T08:25:02.048Z,14.12
2023-04-28T08:26:02.009Z,14.12
2023-04-28T08:27:02.029Z,14.12
2023-04-28T08:28:02.023Z,14.10
2023-04-28T08:29:02.007Z,14.12
2023-04-28T08:30:02.038Z,14.14
2023-04-28T08:31:02.002Z,14.17
2023-04-28T08:32:01.945Z,14.18
2023-04-28T08:33:01.990Z,14.20
2023-04-28T08:34:01.964Z,14.21
2023-04-28T08:35:01.917Z,14.21
2023-04-28T08:36:01.872Z,14.21
2023-04-28T08:37:01.920Z,14.22
2023-04-28T08:38:01.875Z,14.25
2023-04-28T08:39:01.913Z,14.29
2023-04-28T08:40:01.866Z,14.33
2023-04-28T08:41:01.860Z,14.37
2023-04-28T08:42:01.807Z,14.40
2023-04-28T08:43:01.820Z,14.42
2023-04-28T08:44:01.828Z,14.45
2023-04-28T08:45:01.788Z,14.47
2023-04-28T08:46:01.749Z,14.50
2023-04-28T08:47:01.898Z,14.50
2023-04-28T08:48:01.767Z,14.52
2023-04-28T08:49:01.771Z,14.50
2023-04-28T08:50:01.698Z,14.52
2023-04-28T08:51:01.729Z,14.52
2023-04-28T08:52:01.663Z,14.55
2023-04-28T08:53:01.693Z,14.55
2023-04-28T08:55:01.666Z,14.54
2023-04-28T08:56:01.634Z,14.52
2023-04-28T08:57:01.637Z,14.52
2023-04-28T08:58:01.608Z,14.54
2023-04-28T08:59:01.613Z,14.57
2023-04-28T09:00:01.585Z,14.55
2023-04-28T09:01:01.608Z,14.55
2023-04-28T09:02:01.573Z,14.57
2023-04-28T09:03:01.673Z,14.58
2023-04-28T09:04:01.597Z,14.60
2023-04-28T09:05:01.801Z,14.60
2023-04-28T09:06:01.519Z,14.62
2023-04-28T09:07:01.487Z,14.64
2023-04-28T09:08:01.489Z,14.68
2023-04-28T09:09:01.500Z,14.70
2023-04-28T09:10:01.434Z,14.73
2023-04-28T09:11:01.477Z,14.75
2023-04-28T09:12:01.407Z,14.77
2023-04-28T09:13:01.412Z,14.78
2023-04-28T09:14:01.385Z,14.81
2023-04-28T09:15:01.415Z,14.81
2023-04-28T09:16:01.389Z,14.86
2023-04-28T09:17:01.384Z,14.88
2023-04-28T09:18:01.359Z,14.88
2023-04-28T09:19:01.350Z,14.89
2023-04-28T09:20:01.312Z,14.91
2023-04-28T09:21:02.017Z,14.91
2023-04-28T09:22:07.782Z,14.92
2023-04-28T09:23:01.338Z,14.95
2023-04-28T09:24:01.257Z,14.98
2023-04-28T09:25:01.255Z,15.02
2023-04-28T09:26:01.238Z,15.06
2023-04-28T09:27:01.260Z,15.07
2023-04-28T09:28:01.214Z,15.09
2023-04-28T09:29:01.236Z,15.09
2023-04-28T09:30:01.174Z,15.09
2023-04-28T09:31:01.196Z,15.11
2023-04-28T09:32:01.202Z,15.14
2023-04-28T09:33:01.278Z,15.13
2023-04-28T09:34:01.144Z,15.13
2023-04-28T09:35:01.156Z,15.13
2023-04-28T09:36:01.126Z,15.13
2023-04-28T09:37:01.132Z,15.13
2023-04-28T09:38:01.063Z,15.14
2023-04-28T09:39:01.122Z,15.17
2023-04-28T09:40:01.072Z,15.19
2023-04-28T09:41:01.315Z,15.20
2023-04-28T09:42:01.029Z,15.23
2023-04-28T09:43:06.402Z,15.25
2023-04-28T09:44:00.981Z,15.25
2023-04-28T09:45:01.017Z,15.23
2023-04-28T09:46:01.034Z,15.21
2023-04-28T09:47:00.972Z,15.23
2023-04-28T09:48:00.969Z,15.28
2023-04-28T09:49:00.959Z,15.31
2023-04-28T09:50:00.954Z,15.36
2023-04-28T09:51:00.946Z,15.43
2023-04-28T09:52:00.903Z,15.49
2023-04-28T09:53:00.894Z,15.56
2023-04-28T09:54:00.894Z,15.62
2023-04-28T09:55:00.904Z,15.68
2023-04-28T09:56:00.854Z,15.72
2023-04-28T09:57:00.869Z,15.74
2023-04-28T09:58:00.808Z,15.75
2023-04-28T09:59:00.815Z,15.76
2023-04-28T10:00:00.783Z,15.78
2023-04-28T10:01:00.902Z,15.78
2023-04-28T10:02:04.681Z,15.80
2023-04-28T10:03:00.960Z,15.83
2023-04-28T10:04:00.889Z,15.86
2023-04-28T10:05:01.205Z,15.87
2023-04-28T10:06:00.764Z,15.90
2023-04-28T10:07:00.733Z,15.89
2023-04-28T10:08:00.665Z,15.90
2023-04-28T10:09:00.926Z,15.92
2023-04-28T10:10:00.764Z,15.93
2023-04-28T10:11:00.664Z,15.93
2023-04-28T10:12:00.618Z,15.93
2023-04-28T10:13:00.688Z,15.93
2023-04-28T10:14:00.632Z,15.92
2023-04-28T10:15:00.612Z,15.92
2023-04-28T10:16:00.621Z,15.92
2023-04-28T10:17:00.606Z,15.94
2023-04-28T10:18:00.557Z,15.96
2023-04-28T10:19:00.558Z,15.97
2023-04-28T10:20:00.513Z,16.01
2023-04-28T10:21:00.548Z,16.05
2023-04-28T10:22:00.546Z,16.05
2023-04-28T10:23:00.480Z,16.07
2023-04-28T10:24:00.551Z,16.09
2023-04-28T10:25:00.457Z,16.11
2023-04-28T10:26:00.483Z,16.09
2023-04-28T10:27:00.472Z,16.09
2023-04-28T10:28:00.504Z,16.08
2023-04-28T10:29:00.395Z,16.11
2023-04-28T10:30:00.401Z,16.11
2023-04-28T10:31:00.474Z,16.14
2023-04-28T10:32:00.440Z,16.15
2023-04-28T10:33:00.384Z,16.20
2023-04-28T10:34:00.362Z,16.21
2023-04-28T10:35:00.323Z,16.24
2023-04-28T10:36:00.344Z,16.27
2023-04-28T10:37:00.330Z,16.25
2023-04-28T10:38:00.338Z,16.27
2023-04-28T10:39:00.264Z,16.27
2023-04-28T10:40:00.282Z,16.30
2023-04-28T10:41:00.269Z,16.33
2023-04-28T10:42:00.267Z,16.35
2023-04-28T10:43:00.225Z,16.41
2023-04-28T10:44:00.238Z,16.41
2023-04-28T10:45:00.249Z,16.43
2023-04-28T10:46:00.301Z,16.46
2023-04-28T10:47:00.517Z,16.52
2023-04-28T10:48:00.234Z,16.56
2023-04-28T10:49:00.188Z,16.60
2023-04-28T10:50:00.218Z,16.60
2023-04-28T10:51:00.112Z,16.63
2023-04-28T10:52:00.144Z,16.63
2023-04-28T10:53:00.109Z,16.60
2023-04-28T10:54:00.119Z,16.53
2023-04-28T10:55:01.752Z,16.52
2023-04-28T10:56:00.112Z,16.52
2023-04-28T10:57:00.039Z,16.56
2023-04-28T10:58:00.068Z,16.60
2023-04-28T10:59:00.063Z,16.63
2023-04-28T11:00:00.023Z,16.64
2023-04-28T11:00:59.977Z,16.68
2023-04-28T11:02:00.184Z,16.67
2023-04-28T11:03:00.077Z,16.67
2023-04-28T11:04:00.547Z,16.70
2023-04-28T11:05:00.073Z,16.71
2023-04-28T11:05:59.974Z,16.73
2023-04-28T11:06:59.910Z,16.76
2023-04-28T11:08:01.014Z,16.81
2023-04-28T11:08:59.885Z,16.89
2023-04-28T11:09:59.916Z,16.98
2023-04-28T11:10:59.859Z,17.03
2023-04-28T11:11:59.910Z,17.06
2023-04-28T11:12:59.813Z,17.08
2023-04-28T11:13:59.852Z,17.12
2023-04-28T11:14:59.814Z,17.12
2023-04-28T11:15:59.893Z,17.11
2023-04-28T11:16:59.779Z,17.07
2023-04-28T11:17:59.868Z,17.07
2023-04-28T11:18:59.789Z,17.07
2023-04-28T11:19:59.780Z,17.06
2023-04-28T11:20:59.759Z,17.03
2023-04-28T11:21:59.752Z,17.00
2023-04-28T11:22:59.715Z,17.01
2023-04-28T11:23:59.705Z,17.01
2023-04-28T11:24:59.711Z,17.01
2023-04-28T11:25:59.672Z,17.03
2023-04-28T11:26:59.644Z,17.01
2023-04-28T11:27:59.705Z,17.01
2023-04-28T11:28:59.658Z,17.03
2023-04-28T11:29:59.658Z,17.03
2023-04-28T11:30:59.620Z,17.03
2023-04-28T11:31:59.708Z,17.01
2023-04-28T11:32:59.600Z,17.00
2023-04-28T11:33:59.585Z,17.04
2023-04-28T11:34:59.596Z,17.06
2023-04-28T11:35:59.550Z,17.11
2023-04-28T11:36:59.507Z,17.16
2023-04-28T11:37:59.548Z,17.21
2023-04-28T11:38:59.482Z,17.23
2023-04-28T11:39:59.504Z,17.26
2023-04-28T11:40:59.472Z,17.30
2023-04-28T11:41:59.483Z,17.34
2023-04-28T11:43:01.309Z,17.41
2023-04-28T11:43:59.433Z,17.48
2023-04-28T11:44:59.399Z,17.51
2023-04-28T11:45:59.457Z,17.52
2023-04-28T11:46:59.719Z,17.55
2023-04-28T11:47:59.422Z,17.56
2023-04-28T11:48:59.376Z,17.56
2023-04-28T11:49:59.365Z,17.55
2023-04-28T11:50:59.319Z,17.52
2023-04-28T11:51:59.355Z,17.48
2023-04-28T11:52:59.299Z,17.41
2023-04-28T11:53:59.590Z,17.38
2023-04-28T11:54:59.307Z,17.33
2023-04-28T11:55:59.386Z,17.30
2023-04-28T11:56:59.254Z,17.26
2023-04-28T11:57:59.281Z,17.23
2023-04-28T11:58:59.220Z,17.21
2023-04-28T11:59:59.236Z,17.18
2023-04-28T12:00:59.200Z,17.16
2023-04-28T12:01:59.545Z,17.14
2023-04-28T12:02:59.209Z,17.08
2023-04-28T12:03:59.327Z,17.06
2023-04-28T12:04:59.202Z,17.03
2023-04-28T12:05:59.204Z,16.98
2023-04-28T12:06:59.106Z,16.94
2023-04-28T12:07:59.122Z,16.91
2023-04-28T12:08:59.080Z,16.89
2023-04-28T12:09:59.118Z,16.86
2023-04-28T12:10:59.044Z,16.86
2023-04-28T12:11:59.112Z,16.85
2023-04-28T12:12:59.030Z,16.85
2023-04-28T12:13:59.027Z,16.82
2023-04-28T12:14:59.033Z,16.85
2023-04-28T12:15:59.030Z,16.85
2023-04-28T12:16:59.010Z,16.86
2023-04-28T12:17:59.054Z,16.86
2023-04-28T12:18:58.951Z,16.83
2023-04-28T12:19:58.972Z,16.83
2023-04-28T12:20:58.920Z,16.83
2023-04-28T12:21:58.933Z,16.85
2023-04-28T12:22:58.918Z,16.91
2023-04-28T12:23:58.907Z,16.93
2023-04-28T12:24:58.877Z,16.98
2023-04-28T12:25:58.900Z,17.03
2023-04-28T12:26:58.866Z,17.04
2023-04-28T12:27:58.880Z,17.12
2023-04-28T12:28:58.823Z,17.19
2023-04-28T12:29:58.847Z,17.25
2023-04-28T12:30:58.836Z,17.33
2023-04-28T12:31:58.827Z,17.38
2023-04-28T12:32:58.780Z,17.43
2023-04-28T12:33:58.779Z,17.40
2023-04-28T12:34:58.739Z,17.36
2023-04-28T12:35:58.806Z,17.34
2023-04-28T12:36:58.733Z,17.30
2023-04-28T12:37:58.883Z,17.31
2023-04-28T12:38:58.681Z,17.31
2023-04-28T12:39:58.691Z,17.33
2023-04-28T12:40:58.792Z,17.34
2023-04-28T12:41:58.680Z,17.34
2023-04-28T12:42:58.629Z,17.34
2023-04-28T12:43:58.669Z,17.33
2023-04-28T12:44:58.611Z,17.30
2023-04-28T12:45:58.666Z,17.30
2023-04-28T12:46:58.584Z,17.28
2023-04-28T12:47:58.689Z,17.28
2023-04-28T12:48:58.574Z,17.25
2023-04-28T12:49:58.572Z,17.22
2023-04-28T12:50:58.540Z,17.22
2023-04-28T12:51:58.547Z,17.19
2023-04-28T12:52:58.513Z,17.22
2023-04-28T12:53:58.542Z,17.23
2023-04-28T12:54:58.477Z,17.26
2023-04-28T12:55:58.477Z,17.30
2023-04-28T12:56:58.686Z,17.36